Time;durP1;ratioP1;P1;durP2;ratioP2;P2;SDS_P1;SDS_P2;PMS_P1;PMS_P2;Temp;Humidity;BMP_temperature;BMP_pressure;BME280_temperature;BME280_humidity;BME280_pressure;Samples;Min_cycle;Max_cycle;Signal;HPM_P1;HPM_P2
2022/06/02 00:01:48;;;;;;;;;;;;;;;;;;6206004;22;19969;-83
2022/06/02 00:04:14;;;;;;;;;;;;;;;;;;6231279;22;19923;-83
2022/06/02 00:06:42;;;;;;;;;;;;;;;;;;6203717;22;20084;-84
2022/06/02 00:09:09;;;;;;;;;;;;;;;;;;6230293;22;19919;-83
2022/06/02 00:11:35;;;;;;;;;;;;;;;;;;6230149;22;20002;-83
2022/06/02 00:14:03;;;;;;;;;;;;;;;;;;6229770;22;20244;-83
2022/06/02 00:16:36;;;;;;;;;;;;;;;;;;6255044;22;19923;-83
2022/06/02 00:19:03;;;;;;;;;;;;;;;;;;6231343;22;19993;-84
2022/06/02 00:21:30;;;;;;;;;;;;;;;;;;6202869;22;19923;-83
2022/06/02 00:23:57;;;;;;;;;;;;;;;;;;6230652;22;19923;-84
2022/06/02 00:26:25;;;;;;;;;;;;;;;;;;6255350;22;19915;-84
2022/06/02 00:28:52;;;;;;;;;;;;;;;;;;6230516;22;20291;-83
2022/06/02 00:31:18;;;;;;;;;;;;;;;;;;6230791;22;19962;-84
2022/06/02 00:33:45;;;;;;;;;;;;;;;;;;6205164;22;19915;-83
2022/06/02 00:36:12;;;;;;;;;;;;;;;;;;6232926;22;19921;-83
2022/06/02 00:38:39;;;;;;;;;;;;;;;;;;6204186;22;19965;-83
2022/06/02 00:41:07;;;;;;;;;;;;;;;;;;6230242;22;19930;-83
2022/06/02 00:43:34;;;;;;;;;;;;;;;;;;6255096;22;19919;-83
2022/06/02 00:46:16;;;;;;;;;;;;;;;;;;6261410;22;19973;-83
2022/06/02 00:48:42;;;;;;;;;;;;;;;;;;6204171;22;19919;-83
2022/06/02 00:51:08;;;;;;;;;;;;;;;;;;6229832;22;19930;-83
2022/06/02 00:53:35;;;;;;;;;;;;;;;;;;6202617;22;19980;-83
2022/06/02 00:58:49;;;;;;;;;;;;;;;;;;6261927;22;19920;-83
2022/06/02 01:01:17;;;;;;;;;;;;;;;;;;6207307;22;19938;-83
2022/06/02 01:03:44;;;;;;;;;;;;;;;;;;6227785;22;19919;-83
2022/06/02 01:06:11;;;;;;;;;;;;;;;;;;6230430;22;19919;-83
2022/06/02 01:08:37;;;;;;;;;;;;;;;;;;6227191;22;19926;-83
2022/06/02 01:11:05;;;;;;;;;;;;;;;;;;6229517;22;20005;-83
2022/06/02 01:13:32;;;;;;;;;;;;;;;;;;6202655;22;19953;-83
2022/06/02 01:16:08;;;;;;;;;;;;;;;;;;6233264;22;20045;-83
2022/06/02 01:18:36;;;;;;;;;;;;;;;;;;6227926;22;19919;-83
2022/06/02 01:21:06;;;;;;;;;;;;;;;;;;6260560;22;19955;-83
2022/06/02 01:23:33;;;;;;;;;;;;;;;;;;6255688;22;19923;-83
2022/06/02 01:25:59;;;;;;;;;;;;;;;;;;6230476;22;20229;-83
2022/06/02 01:28:26;;;;;;;;;;;;;;;;;;6227556;22;19930;-83
2022/06/02 01:30:54;;;;;;;;;;;;;;;;;;6205974;22;19923;-83
2022/06/02 01:33:20;;;;;;;;;;;;;;;;;;6205357;22;19990;-83
2022/06/02 01:36:01;;;;;;;;;;;;;;;;;;6233129;22;19934;-83
2022/06/02 01:38:27;;;;;;;;;;;;;;;;;;6226900;22;19919;-83
2022/06/02 01:40:53;;;;;;;;;;;;;;;;;;6200447;22;20324;-83
2022/06/02 01:43:21;;;;;;;;;;;;;;;;;;6257135;22;19919;-83
2022/06/02 01:45:47;;;;;;;;;;;;;;;;;;6232184;22;19919;-83
2022/06/02 01:48:15;;;;;;;;;;;;;;;;;;6230476;22;19966;-83
2022/06/02 01:50:44;;;;;;;;;;;;;;;;;;6191270;23;20022;-84
2022/06/02 01:53:12;;;;;;;;;;;;;;;;;;6195625;23;19927;-83
2022/06/02 01:56:01;;;;;;;;;;;;;;;;;;6196650;23;20316;-83
2022/06/02 01:58:28;;;;;;;;;;;;;;;;;;6142824;23;19920;-83
2022/06/02 02:00:57;;;;;;;;;;;;;;;;;;6195778;23;20006;-83
2022/06/02 02:03:24;;;;;;;;;;;;;;;;;;6140070;23;19962;-84
2022/06/02 02:05:51;;;;;;;;;;;;;;;;;;6147293;23;19916;-84
2022/06/02 02:08:19;;;;;;;;;;;;;;;;;;6147526;23;20926;-83
2022/06/02 02:10:45;;;;;;;;;;;;;;;;;;6167117;23;19954;-84
2022/06/02 02:13:12;;;;;;;;;;;;;;;;;;6192179;23;20247;-84
2022/06/02 02:15:39;;;;;;;;;;;;;;;;;;6190004;23;19920;-84
2022/06/02 02:18:06;;;;;;;;;;;;;;;;;;6141055;23;20560;-84
2022/06/02 02:20:47;;;;;;;;;;;;;;;;;;6198665;22;20063;-84
2022/06/02 02:23:14;;;;;;;;;;;;;;;;;;6229966;22;19923;-83
2022/06/02 02:25:55;;;;;;;;;;;;;;;;;;6166672;23;19924;-84
2022/06/02 02:28:28;;;;;;;;;;;;;;;;;;6160835;23;19928;-84
2022/06/02 02:30:55;;;;;;;;;;;;;;;;;;6113824;23;19924;-84
2022/06/02 02:33:24;;;;;;;;;;;;;;;;;;6163290;23;19920;-84
2022/06/02 02:35:50;;;;;;;;;;;;;;;;;;6141042;23;20354;-84
2022/06/02 02:38:16;;;;;;;;;;;;;;;;;;6114769;23;19932;-84
2022/06/02 02:40:42;;;;;;;;;;;;;;;;;;6112305;23;19920;-84
2022/06/02 02:43:09;;;;;;;;;;;;;;;;;;6137740;23;19920;-84
2022/06/02 02:45:35;;;;;;;;;;;;;;;;;;6135853;23;19924;-85
2022/06/02 02:48:05;;;;;;;;;;;;;;;;;;6115913;23;20000;-84
2022/06/02 02:50:33;;;;;;;;;;;;;;;;;;6110219;23;20003;-84
2022/06/02 02:53:00;;;;;;;;;;;;;;;;;;6112438;23;19920;-84
2022/06/02 02:55:41;;;;;;;;;;;;;;;;;;6103064;23;19920;-84
2022/06/02 02:58:07;;;;;;;;;;;;;;;;;;6110479;23;19952;-83
2022/06/02 03:00:33;;;;;;;;;;;;;;;;;;6137841;23;19920;-84
2022/06/02 03:03:02;;;;;;;;;;;;;;;;;;6163030;23;19916;-84
2022/06/02 03:05:29;;;;;;;;;;;;;;;;;;6137310;23;19920;-84
2022/06/02 03:07:55;;;;;;;;;;;;;;;;;;6140826;23;19947;-84
2022/06/02 03:10:27;;;;;;;;;;;;;;;;;;6138748;23;19963;-84
2022/06/02 03:12:59;;;;;;;;;;;;;;;;;;6151129;23;20191;-84
2022/06/02 03:15:25;;;;;;;;;;;;;;;;;;6140194;23;20701;-84
2022/06/02 03:17:57;;;;;;;;;;;;;;;;;;6163345;23;19920;-84
2022/06/02 03:20:27;;;;;;;;;;;;;;;;;;6136576;23;19928;-84
2022/06/02 03:22:54;;;;;;;;;;;;;;;;;;6160843;23;19924;-84
2022/06/02 03:25:20;;;;;;;;;;;;;;;;;;6137173;23;19920;-84
2022/06/02 03:27:48;;;;;;;;;;;;;;;;;;6200187;22;19919;-84
2022/06/02 03:30:15;;;;;;;;;;;;;;;;;;6229306;22;19919;-84
2022/06/02 03:32:41;;;;;;;;;;;;;;;;;;6227584;22;19923;-84
2022/06/02 03:35:08;;;;;;;;;;;;;;;;;;6231999;22;19927;-84
2022/06/02 03:37:36;;;;;;;;;;;;;;;;;;6206794;22;20344;-84
2022/06/02 03:40:03;;;;;;;;;;;;;;;;;;6202535;22;20338;-84
2022/06/02 03:42:32;;;;;;;;;;;;;;;;;;6254120;22;19990;-84
2022/06/02 03:44:59;;;;;;;;;;;;;;;;;;6230837;22;20351;-84
2022/06/02 03:47:26;;;;;;;;;;;;;;;;;;6227282;22;19930;-84
2022/06/02 03:50:09;;;;;;;;;;;;;;;;;;6235010;22;19948;-84
2022/06/02 03:52:39;;;;;;;;;;;;;;;;;;6256269;22;19931;-84
2022/06/02 03:55:20;;;;;;;;;;;;;;;;;;6190174;23;20359;-84
2022/06/02 03:57:46;;;;;;;;;;;;;;;;;;6170572;23;19958;-85
2022/06/02 04:00:13;;;;;;;;;;;;;;;;;;6144423;23;20657;-85
2022/06/02 04:02:54;;;;;;;;;;;;;;;;;;6206015;23;20806;-84
2022/06/02 04:05:21;;;;;;;;;;;;;;;;;;6169552;23;19920;-84
2022/06/02 04:07:51;;;;;;;;;;;;;;;;;;6194868;23;20423;-85
2022/06/02 04:10:18;;;;;;;;;;;;;;;;;;6195731;23;19995;-84
2022/06/02 04:15:29;;;;;;;;;;;;;;;;;;6190250;23;19927;-84
2022/06/02 04:18:10;;;;;;;;;;;;;;;;;;6194017;23;19958;-84
2022/06/02 04:20:36;;;;;;;;;;;;;;;;;;6190141;23;19927;-84
2022/06/02 04:23:03;;;;;;;;;;;;;;;;;;6146046;23;19920;-84
2022/06/02 04:25:31;;;;;;;;;;;;;;;;;;6149679;22;19919;-84
2022/06/02 04:27:57;;;;;;;;;;;;;;;;;;6205528;22;19919;-84
2022/06/02 04:30:24;;;;;;;;;;;;;;;;;;6202769;22;19925;-84
2022/06/02 04:33:08;;;;;;;;;;;;;;;;;;6260335;22;19938;-84
2022/06/02 04:35:34;;;;;;;;;;;;;;;;;;6205696;22;20423;-84
2022/06/02 04:38:01;;;;;;;;;;;;;;;;;;6232758;22;19919;-84
2022/06/02 04:40:28;;;;;;;;;;;;;;;;;;6226520;22;19919;-84
2022/06/02 04:42:54;;;;;;;;;;;;;;;;;;6230190;22;19915;-84
2022/06/02 04:45:21;;;;;;;;;;;;;;;;;;6230010;22;19926;-85
2022/06/02 04:47:54;;;;;;;;;;;;;;;;;;6206589;22;19965;-84
2022/06/02 04:50:21;;;;;;;;;;;;;;;;;;6256779;22;19919;-84
2022/06/02 04:52:48;;;;;;;;;;;;;;;;;;6231833;22;19923;-84
2022/06/02 04:55:24;;;;;;;;;;;;;;;;;;6258387;22;20354;-85
2022/06/02 04:57:51;;;;;;;;;;;;;;;;;;6207887;22;19919;-85
2022/06/02 05:00:18;;;;;;;;;;;;;;;;;;6231576;22;19989;-85
2022/06/02 05:02:44;;;;;;;;;;;;;;;;;;6201129;22;19925;-84
2022/06/02 05:05:11;;;;;;;;;;;;;;;;;;6232047;22;19923;-84
2022/06/02 05:07:38;;;;;;;;;;;;;;;;;;6204794;22;19919;-84
2022/06/02 05:10:06;;;;;;;;;;;;;;;;;;6230480;22;19927;-84
2022/06/02 05:12:32;;;;;;;;;;;;;;;;;;6224672;22;19976;-84
2022/06/02 05:15:10;;;;;;;;;;;;;;;;;;6206863;22;19926;-84
2022/06/02 05:17:37;;;;;;;;;;;;;;;;;;6198236;22;19920;-84
2022/06/02 05:20:04;;;;;;;;;;;;;;;;;;6231054;22;20229;-83
2022/06/02 05:22:30;;;;;;;;;;;;;;;;;;6205868;22;19919;-84
2022/06/02 05:24:56;;;;;;;;;;;;;;;;;;6209236;22;20088;-84
2022/06/02 05:27:23;;;;;;;;;;;;;;;;;;6204960;22;19994;-84
2022/06/02 05:29:50;;;;;;;;;;;;;;;;;;6234843;22;20747;-84
2022/06/02 05:32:20;;;;;;;;;;;;;;;;;;6260272;22;19923;-84
2022/06/02 05:34:47;;;;;;;;;;;;;;;;;;6204121;22;20106;-84
2022/06/02 05:37:13;;;;;;;;;;;;;;;;;;6255297;22;20018;-84
2022/06/02 05:39:39;;;;;;;;;;;;;;;;;;6202580;22;20073;-84
2022/06/02 05:42:20;;;;;;;;;;;;;;;;;;6162527;23;19920;-84
2022/06/02 05:44:47;;;;;;;;;;;;;;;;;;6136894;23;20260;-84
2022/06/02 05:47:14;;;;;;;;;;;;;;;;;;6149558;23;19927;-83
2022/06/02 05:49:41;;;;;;;;;;;;;;;;;;6165554;23;20116;-84
2022/06/02 05:52:27;;;;;;;;;;;;;;;;;;6170274;23;20351;-84
2022/06/02 05:54:58;;;;;;;;;;;;;;;;;;6192514;23;19920;-84
2022/06/02 05:57:26;;;;;;;;;;;;;;;;;;6146111;23;20898;-84
2022/06/02 05:59:53;;;;;;;;;;;;;;;;;;6174920;23;19995;-84
2022/06/02 06:02:23;;;;;;;;;;;;;;;;;;6194529;23;19958;-84
2022/06/02 06:04:54;;;;;;;;;;;;;;;;;;6169529;23;19920;-84
2022/06/02 06:07:20;;;;;;;;;;;;;;;;;;6143705;23;19920;-85
2022/06/02 06:09:46;;;;;;;;;;;;;;;;;;6168671;23;19924;-84
2022/06/02 06:12:14;;;;;;;;;;;;;;;;;;6173857;22;19931;-84
2022/06/02 06:14:40;;;;;;;;;;;;;;;;;;6232728;22;19976;-84
2022/06/02 06:17:13;;;;;;;;;;;;;;;;;;6235824;22;19925;-84
2022/06/02 06:19:54;;;;;;;;;;;;;;;;;;6169143;23;19950;-84
2022/06/02 06:22:28;;;;;;;;;;;;;;;;;;6167886;23;20048;-85
2022/06/02 06:24:54;;;;;;;;;;;;;;;;;;6143693;23;19920;-84
2022/06/02 06:27:20;;;;;;;;;;;;;;;;;;6167946;23;19920;-85
2022/06/02 06:29:46;;;;;;;;;;;;;;;;;;6165624;23;19944;-85
2022/06/02 06:32:13;;;;;;;;;;;;;;;;;;6168814;23;19959;-85
2022/06/02 06:34:39;;;;;;;;;;;;;;;;;;6141219;23;20372;-85
2022/06/02 06:37:13;;;;;;;;;;;;;;;;;;6172479;23;19920;-86
2022/06/02 06:39:39;;;;;;;;;;;;;;;;;;6144465;23;19916;-85
2022/06/02 06:42:07;;;;;;;;;;;;;;;;;;6171994;23;19994;-85
2022/06/02 06:44:35;;;;;;;;;;;;;;;;;;6170211;23;20337;-85
2022/06/02 06:55:49;;;;;;;;;;;;;;;;;;6258223;22;19968;-83
2022/06/02 06:58:35;;;;;;;;;;;;;;;;;;6261466;22;19934;-83
2022/06/02 07:01:08;;;;;;;;;;;;;;;;;;6237627;22;20482;-83
2022/06/02 07:03:35;;;;;;;;;;;;;;;;;;6264583;22;19923;-82
2022/06/02 07:06:21;;;;;;;;;;;;;;;;;;6176292;23;19923;-83
2022/06/02 07:08:52;;;;;;;;;;;;;;;;;;6204671;23;19923;-83
2022/06/02 07:14:11;;;;;;;;;;;;;;;;;;6203941;23;19967;-83
2022/06/02 07:16:39;;;;;;;;;;;;;;;;;;6177000;23;19919;-83
2022/06/02 07:19:06;;;;;;;;;;;;;;;;;;6154475;23;19919;-84
2022/06/02 07:21:33;;;;;;;;;;;;;;;;;;6152787;23;20359;-84
2022/06/02 07:24:03;;;;;;;;;;;;;;;;;;6204804;23;19923;-84
2022/06/02 07:26:30;;;;;;;;;;;;;;;;;;6149748;23;19954;-84
2022/06/02 07:29:12;;;;;;;;;;;;;;;;;;6144300;23;19916;-84
2022/06/02 07:31:39;;;;;;;;;;;;;;;;;;6118050;23;19920;-84
2022/06/02 07:34:06;;;;;;;;;;;;;;;;;;6095998;23;19928;-84
2022/06/02 07:36:33;;;;;;;;;;;;;;;;;;6093383;23;20300;-84
2022/06/02 07:39:00;;;;;;;;;;;;;;;;;;6097640;23;20398;-84
2022/06/02 07:41:28;;;;;;;;;;;;;;;;;;6095741;23;19964;-83
2022/06/02 07:43:54;;;;;;;;;;;;;;;;;;6097338;23;19916;-84
2022/06/02 07:46:29;;;;;;;;;;;;;;;;;;6120866;23;19923;-84
2022/06/02 07:48:57;;;;;;;;;;;;;;;;;;6121696;23;19952;-84
2022/06/02 07:51:24;;;;;;;;;;;;;;;;;;6177247;23;19927;-84
2022/06/02 07:53:52;;;;;;;;;;;;;;;;;;6180555;23;19967;-84
2022/06/02 07:56:18;;;;;;;;;;;;;;;;;;6181732;23;19923;-84
2022/06/02 07:58:45;;;;;;;;;;;;;;;;;;6204988;23;19924;-84
2022/06/02 08:01:12;;;;;;;;;;;;;;;;;;6212289;23;20316;-84
2022/06/02 08:03:40;;;;;;;;;;;;;;;;;;6235280;23;20029;-84
2022/06/02 08:06:08;;;;;;;;;;;;;;;;;;6211785;23;19927;-84
2022/06/02 08:08:34;;;;;;;;;;;;;;;;;;6208271;23;19966;-84
2022/06/02 08:11:01;;;;;;;;;;;;;;;;;;6187237;23;19923;-84
2022/06/02 08:13:28;;;;;;;;;;;;;;;;;;6209920;23;19966;-84
2022/06/02 08:15:55;;;;;;;;;;;;;;;;;;6212772;23;19919;-84
2022/06/02 08:18:22;;;;;;;;;;;;;;;;;;6211019;23;20217;-84
2022/06/02 08:20:49;;;;;;;;;;;;;;;;;;6212239;23;20359;-84
2022/06/02 08:23:16;;;;;;;;;;;;;;;;;;6212869;23;20694;-84
2022/06/02 08:25:44;;;;;;;;;;;;;;;;;;6236129;23;20260;-84
2022/06/02 08:28:11;;;;;;;;;;;;;;;;;;6187777;23;19964;-84
2022/06/02 08:30:38;;;;;;;;;;;;;;;;;;6209952;23;19926;-84
2022/06/02 08:33:05;;;;;;;;;;;;;;;;;;6212088;23;20654;-84
2022/06/02 08:35:32;;;;;;;;;;;;;;;;;;6210815;23;19930;-84
2022/06/02 08:37:59;;;;;;;;;;;;;;;;;;6213504;23;19919;-84
2022/06/02 08:40:28;;;;;;;;;;;;;;;;;;6209418;23;19951;-85
2022/06/02 08:42:54;;;;;;;;;;;;;;;;;;6212775;23;20419;-85
2022/06/02 08:45:21;;;;;;;;;;;;;;;;;;6209750;23;19919;-85
2022/06/02 08:47:48;;;;;;;;;;;;;;;;;;6187816;23;19920;-85
2022/06/02 08:50:16;;;;;;;;;;;;;;;;;;6187777;23;20073;-83
2022/06/02 08:52:43;;;;;;;;;;;;;;;;;;6184487;23;20009;-83
2022/06/02 08:55:10;;;;;;;;;;;;;;;;;;6187366;23;20252;-83
2022/06/02 08:57:36;;;;;;;;;;;;;;;;;;6213758;22;19916;-83
2022/06/02 09:00:03;;;;;;;;;;;;;;;;;;6242557;22;19924;-83
2022/06/02 09:02:30;;;;;;;;;;;;;;;;;;6214507;22;19915;-83
2022/06/02 09:04:57;;;;;;;;;;;;;;;;;;6217696;22;19984;-83
2022/06/02 09:07:24;;;;;;;;;;;;;;;;;;6241400;22;20255;-83
2022/06/02 09:09:50;;;;;;;;;;;;;;;;;;6242673;22;19926;-83
2022/06/02 09:12:18;;;;;;;;;;;;;;;;;;6217680;22;19916;-83
2022/06/02 09:14:45;;;;;;;;;;;;;;;;;;6214536;22;19923;-83
2022/06/02 09:17:13;;;;;;;;;;;;;;;;;;6217408;22;19915;-83
2022/06/02 09:19:40;;;;;;;;;;;;;;;;;;6240003;22;20290;-83
2022/06/02 09:22:07;;;;;;;;;;;;;;;;;;6242814;22;19923;-83
2022/06/02 09:24:33;;;;;;;;;;;;;;;;;;6215065;22;19915;-83
2022/06/02 09:27:00;;;;;;;;;;;;;;;;;;6217931;22;19922;-83
2022/06/02 09:29:27;;;;;;;;;;;;;;;;;;6240385;22;19950;-83
2022/06/02 09:31:55;;;;;;;;;;;;;;;;;;6216688;22;19919;-83
2022/06/02 09:34:21;;;;;;;;;;;;;;;;;;6268360;22;19930;-83
2022/06/02 09:36:47;;;;;;;;;;;;;;;;;;6218862;22;19919;-83
2022/06/02 09:39:22;;;;;;;;;;;;;;;;;;6219315;22;20354;-83
2022/06/02 09:41:47;;;;;;;;;;;;;;;;;;6217850;22;19923;-83
2022/06/02 09:44:18;;;;;;;;;;;;;;;;;;6216856;22;19927;-86
2022/06/02 09:46:48;;;;;;;;;;;;;;;;;;6239188;22;20246;-86
2022/06/02 09:49:15;;;;;;;;;;;;;;;;;;6216652;22;19923;-85
2022/06/02 09:51:42;;;;;;;;;;;;;;;;;;6240941;22;19919;-86
2022/06/02 09:54:09;;;;;;;;;;;;;;;;;;6242158;22;19961;-86
2022/06/02 09:56:46;;;;;;;;;;;;;;;;;;6266903;22;20115;-86
2022/06/02 09:59:12;;;;;;;;;;;;;;;;;;6241367;22;19923;-86
2022/06/02 10:01:39;;;;;;;;;;;;;;;;;;6238168;22;19926;-86
2022/06/02 10:04:06;;;;;;;;;;;;;;;;;;6216215;22;20248;-86
2022/06/02 10:06:32;;;;;;;;;;;;;;;;;;6239806;22;19926;-86
2022/06/02 10:09:04;;;;;;;;;;;;;;;;;;6242874;22;19927;-86
2022/06/02 10:11:31;;;;;;;;;;;;;;;;;;6239349;22;19995;-85
2022/06/02 10:13:59;;;;;;;;;;;;;;;;;;6216815;22;19930;-85
2022/06/02 10:16:26;;;;;;;;;;;;;;;;;;6239095;22;19930;-86
2022/06/02 10:18:53;;;;;;;;;;;;;;;;;;6217136;22;20608;-86
2022/06/02 10:21:20;;;;;;;;;;;;;;;;;;6216651;22;19973;-87
2022/06/02 10:23:46;;;;;;;;;;;;;;;;;;6241405;22;19923;-87
2022/06/02 10:26:14;;;;;;;;;;;;;;;;;;6269013;22;19926;-87
2022/06/02 10:28:41;;;;;;;;;;;;;;;;;;6266183;22;21075;-86
2022/06/02 10:31:08;;;;;;;;;;;;;;;;;;6217147;22;19926;-87
2022/06/02 10:33:35;;;;;;;;;;;;;;;;;;6239653;22;19927;-87
2022/06/02 10:36:03;;;;;;;;;;;;;;;;;;6241106;22;20027;-87
2022/06/02 10:38:29;;;;;;;;;;;;;;;;;;6214633;22;20355;-87
2022/06/02 10:40:56;;;;;;;;;;;;;;;;;;6216340;22;19919;-86
2022/06/02 10:43:26;;;;;;;;;;;;;;;;;;6213721;22;19929;-86
2022/06/02 10:45:53;;;;;;;;;;;;;;;;;;6216529;22;20320;-86
2022/06/02 10:48:21;;;;;;;;;;;;;;;;;;6216381;22;19930;-83
2022/06/02 10:50:51;;;;;;;;;;;;;;;;;;6240171;22;20324;-83
2022/06/02 10:53:21;;;;;;;;;;;;;;;;;;6216686;22;19937;-83
2022/06/02 10:55:51;;;;;;;;;;;;;;;;;;6240761;22;19987;-84
2022/06/02 10:58:18;;;;;;;;;;;;;;;;;;6241557;22;20418;-83
2022/06/02 11:00:59;;;;;;;;;;;;;;;;;;6174360;23;19927;-83
2022/06/02 11:03:25;;;;;;;;;;;;;;;;;;6147537;23;20257;-83
2022/06/02 11:05:51;;;;;;;;;;;;;;;;;;6174285;23;20306;-84
2022/06/02 11:08:18;;;;;;;;;;;;;;;;;;6149669;23;19920;-83
2022/06/02 11:10:45;;;;;;;;;;;;;;;;;;6171840;23;20002;-83
2022/06/02 11:13:13;;;;;;;;;;;;;;;;;;6174039;23;20245;-83
2022/06/02 11:15:41;;;;;;;;;;;;;;;;;;6148307;23;19995;-83
2022/06/02 11:18:07;;;;;;;;;;;;;;;;;;6149396;23;19987;-83
2022/06/02 11:20:40;;;;;;;;;;;;;;;;;;6171958;23;19963;-83
2022/06/02 11:23:07;;;;;;;;;;;;;;;;;;6173732;23;20400;-83
2022/06/02 11:25:34;;;;;;;;;;;;;;;;;;6172533;23;19948;-83
2022/06/02 11:28:01;;;;;;;;;;;;;;;;;;6149889;23;20340;-83
2022/06/02 11:30:28;;;;;;;;;;;;;;;;;;6172218;23;20331;-83
2022/06/02 11:32:54;;;;;;;;;;;;;;;;;;6150207;23;19931;-83
2022/06/02 11:35:36;;;;;;;;;;;;;;;;;;6172611;23;19940;-83
2022/06/02 11:38:03;;;;;;;;;;;;;;;;;;6175397;22;19969;-83
2022/06/02 11:40:30;;;;;;;;;;;;;;;;;;6239776;22;19946;-83
2022/06/02 11:42:56;;;;;;;;;;;;;;;;;;6216553;22;19922;-83
2022/06/02 11:45:23;;;;;;;;;;;;;;;;;;6239219;22;19919;-84
2022/06/02 11:47:50;;;;;;;;;;;;;;;;;;6241545;22;19965;-83
2022/06/02 11:50:17;;;;;;;;;;;;;;;;;;6241773;22;19950;-83
2022/06/02 11:52:44;;;;;;;;;;;;;;;;;;6237862;22;19965;-84
2022/06/02 11:55:11;;;;;;;;;;;;;;;;;;6268122;22;19994;-83
2022/06/02 11:57:40;;;;;;;;;;;;;;;;;;6230207;23;19916;-83
2022/06/02 12:00:06;;;;;;;;;;;;;;;;;;6210888;23;19923;-83
2022/06/02 12:02:32;;;;;;;;;;;;;;;;;;6208024;23;19965;-83
2022/06/02 12:04:58;;;;;;;;;;;;;;;;;;6237142;23;19916;-84
2022/06/02 12:07:25;;;;;;;;;;;;;;;;;;6236196;23;19924;-83
2022/06/02 12:09:52;;;;;;;;;;;;;;;;;;6210967;23;19916;-83
2022/06/02 12:12:18;;;;;;;;;;;;;;;;;;6210610;23;19999;-85
2022/06/02 12:14:46;;;;;;;;;;;;;;;;;;6233293;23;19943;-84
2022/06/02 12:17:13;;;;;;;;;;;;;;;;;;6236462;23;19915;-84
2022/06/02 12:19:41;;;;;;;;;;;;;;;;;;6235665;23;20558;-84
2022/06/02 12:22:08;;;;;;;;;;;;;;;;;;6238992;23;19927;-84
2022/06/02 12:24:36;;;;;;;;;;;;;;;;;;6235506;23;19923;-84
2022/06/02 12:27:03;;;;;;;;;;;;;;;;;;6238702;23;19947;-84
2022/06/02 12:29:30;;;;;;;;;;;;;;;;;;6211087;23;19915;-84
2022/06/02 12:31:57;;;;;;;;;;;;;;;;;;6238589;23;19920;-84
2022/06/02 12:34:26;;;;;;;;;;;;;;;;;;6211059;23;19926;-84
2022/06/02 12:36:52;;;;;;;;;;;;;;;;;;6206333;23;19923;-84
2022/06/02 12:39:18;;;;;;;;;;;;;;;;;;6206707;23;19920;-84
2022/06/02 12:41:46;;;;;;;;;;;;;;;;;;6178965;23;19969;-84
2022/06/02 12:44:20;;;;;;;;;;;;;;;;;;6180227;23;19923;-84
2022/06/02 12:46:50;;;;;;;;;;;;;;;;;;6181010;23;20001;-84
2022/06/02 12:49:20;;;;;;;;;;;;;;;;;;6180335;23;19935;-84
2022/06/02 12:51:51;;;;;;;;;;;;;;;;;;6181426;23;19928;-83
2022/06/02 12:54:17;;;;;;;;;;;;;;;;;;6205082;23;19923;-83
2022/06/02 12:56:44;;;;;;;;;;;;;;;;;;6177590;23;19991;-83
2022/06/02 12:59:11;;;;;;;;;;;;;;;;;;6205747;23;19924;-83
2022/06/02 13:01:44;;;;;;;;;;;;;;;;;;6203819;23;19922;-83
2022/06/02 13:04:12;;;;;;;;;;;;;;;;;;6204264;23;20510;-83
2022/06/02 13:06:53;;;;;;;;;;;;;;;;;;6151607;23;19940;-84
2022/06/02 13:09:21;;;;;;;;;;;;;;;;;;6151138;23;20424;-83
2022/06/02 13:11:49;;;;;;;;;;;;;;;;;;6202103;23;19920;-83
2022/06/02 13:14:22;;;;;;;;;;;;;;;;;;6179952;23;19927;-84
2022/06/02 13:16:56;;;;;;;;;;;;;;;;;;6151748;23;19920;-84
2022/06/02 13:19:32;;;;;;;;;;;;;;;;;;6202753;23;20269;-84
2022/06/02 13:22:00;;;;;;;;;;;;;;;;;;6181399;23;19944;-83
2022/06/02 13:24:27;;;;;;;;;;;;;;;;;;6178688;23;20023;-83
2022/06/02 13:26:54;;;;;;;;;;;;;;;;;;6178484;23;19919;-83
2022/06/02 13:29:21;;;;;;;;;;;;;;;;;;6178269;23;19973;-83
2022/06/02 13:31:47;;;;;;;;;;;;;;;;;;6150085;23;20365;-83
2022/06/02 13:34:14;;;;;;;;;;;;;;;;;;6149597;23;20056;-83
2022/06/02 13:36:41;;;;;;;;;;;;;;;;;;6140829;23;20174;-83
2022/06/02 13:39:11;;;;;;;;;;;;;;;;;;6208239;23;19919;-84
2022/06/02 13:41:37;;;;;;;;;;;;;;;;;;6181557;23;19920;-83
2022/06/02 13:44:04;;;;;;;;;;;;;;;;;;6181920;23;19920;-83
2022/06/02 13:46:43;;;;;;;;;;;;;;;;;;6206984;23;20030;-83
2022/06/02 13:49:11;;;;;;;;;;;;;;;;;;6185583;23;20604;-83
2022/06/02 13:51:36;;;;;;;;;;;;;;;;;;6208520;23;20324;-83
2022/06/02 13:59:35;;;;;;;;;;;;;;;;;;6234888;22;19924;-83
2022/06/02 14:02:03;;;;;;;;;;;;;;;;;;6232845;23;19916;-84
2022/06/02 14:04:29;;;;;;;;;;;;;;;;;;6208526;23;20292;-83
2022/06/02 14:06:55;;;;;;;;;;;;;;;;;;6211528;23;19965;-83
2022/06/02 14:09:23;;;;;;;;;;;;;;;;;;6209506;23;20010;-84
2022/06/02 14:11:53;;;;;;;;;;;;;;;;;;6239116;23;19935;-83
2022/06/02 14:14:22;;;;;;;;;;;;;;;;;;6210292;23;20639;-84
2022/06/02 14:16:52;;;;;;;;;;;;;;;;;;6237024;23;19953;-83
2022/06/02 14:19:21;;;;;;;;;;;;;;;;;;6210189;23;20360;-84
2022/06/02 14:21:54;;;;;;;;;;;;;;;;;;6238036;23;19926;-84
2022/06/02 14:24:21;;;;;;;;;;;;;;;;;;6210071;23;19994;-83
2022/06/02 14:26:51;;;;;;;;;;;;;;;;;;6210030;23;19920;-84
2022/06/02 14:29:21;;;;;;;;;;;;;;;;;;6237149;23;19965;-84
2022/06/02 14:31:47;;;;;;;;;;;;;;;;;;6236212;23;19920;-84
2022/06/02 14:34:14;;;;;;;;;;;;;;;;;;6213663;22;19923;-84
2022/06/02 14:36:54;;;;;;;;;;;;;;;;;;6174508;23;19995;-84
2022/06/02 14:39:20;;;;;;;;;;;;;;;;;;6144296;23;20325;-84
2022/06/02 14:41:57;;;;;;;;;;;;;;;;;;6144816;23;19965;-83
2022/06/02 14:44:23;;;;;;;;;;;;;;;;;;6164200;23;19971;-84
2022/06/02 14:47:04;;;;;;;;;;;;;;;;;;6137818;23;19924;-85
2022/06/02 14:49:32;;;;;;;;;;;;;;;;;;6139797;23;19920;-84
2022/06/02 14:51:59;;;;;;;;;;;;;;;;;;6117597;23;19920;-85
2022/06/02 14:54:27;;;;;;;;;;;;;;;;;;6139564;23;20359;-84
2022/06/02 14:56:58;;;;;;;;;;;;;;;;;;6143488;23;19920;-84
2022/06/02 14:59:26;;;;;;;;;;;;;;;;;;6116465;23;19935;-85
2022/06/02 15:01:54;;;;;;;;;;;;;;;;;;6144205;23;20459;-85
2022/06/02 15:04:21;;;;;;;;;;;;;;;;;;6116638;23;19916;-84
2022/06/02 15:06:50;;;;;;;;;;;;;;;;;;6146944;23;19947;-84
2022/06/02 15:09:17;;;;;;;;;;;;;;;;;;6199374;23;19927;-85
2022/06/02 15:11:43;;;;;;;;;;;;;;;;;;6195692;23;20244;-85
2022/06/02 15:14:13;;;;;;;;;;;;;;;;;;6199721;23;19920;-84
2022/06/02 15:16:39;;;;;;;;;;;;;;;;;;6197865;23;19916;-84
2022/06/02 15:19:05;;;;;;;;;;;;;;;;;;6260831;22;19926;-84
2022/06/02 15:21:32;;;;;;;;;;;;;;;;;;6238141;22;20041;-84
2022/06/02 15:23:59;;;;;;;;;;;;;;;;;;6239920;22;19919;-84
2022/06/02 15:26:25;;;;;;;;;;;;;;;;;;6266542;22;19915;-84
2022/06/02 15:28:59;;;;;;;;;;;;;;;;;;6266929;22;20343;-84
2022/06/02 15:31:24;;;;;;;;;;;;;;;;;;6266502;22;19931;-83
2022/06/02 15:33:51;;;;;;;;;;;;;;;;;;6240011;22;20240;-84
2022/06/02 15:36:18;;;;;;;;;;;;;;;;;;6240361;22;20301;-85
2022/06/02 15:38:44;;;;;;;;;;;;;;;;;;6264768;22;20260;-85
2022/06/02 15:41:12;;;;;;;;;;;;;;;;;;6216339;22;19919;-85
2022/06/02 15:43:51;;;;;;;;;;;;;;;;;;6212293;22;19967;-86
2022/06/02 15:46:17;;;;;;;;;;;;;;;;;;6214527;22;19919;-85
2022/06/02 15:48:45;;;;;;;;;;;;;;;;;;6211635;22;19926;-85
2022/06/02 15:51:11;;;;;;;;;;;;;;;;;;6235366;22;19938;-85
2022/06/02 15:53:38;;;;;;;;;;;;;;;;;;6208659;22;19958;-84
2022/06/02 15:56:13;;;;;;;;;;;;;;;;;;6237160;22;19919;-85
2022/06/02 15:58:40;;;;;;;;;;;;;;;;;;6236593;22;19927;-85
2022/06/02 16:01:08;;;;;;;;;;;;;;;;;;6240480;22;19915;-85
2022/06/02 16:03:34;;;;;;;;;;;;;;;;;;6210948;22;19919;-84
2022/06/02 16:06:00;;;;;;;;;;;;;;;;;;6237787;22;19990;-85
2022/06/02 16:08:27;;;;;;;;;;;;;;;;;;6206982;22;19950;-85
2022/06/02 16:13:54;;;;;;;;;;;;;;;;;;6266337;22;19972;-84
2022/06/02 16:16:20;;;;;;;;;;;;;;;;;;6230841;22;19922;-87
2022/06/02 16:18:54;;;;;;;;;;;;;;;;;;6208908;22;19919;-86
2022/06/02 16:21:23;;;;;;;;;;;;;;;;;;6240205;22;20616;-86
2022/06/02 16:23:57;;;;;;;;;;;;;;;;;;6242826;22;20355;-86
2022/06/02 16:26:24;;;;;;;;;;;;;;;;;;6239097;22;19926;-86
2022/06/02 16:29:07;;;;;;;;;;;;;;;;;;6175437;23;19920;-86
2022/06/02 16:31:33;;;;;;;;;;;;;;;;;;6171431;23;19999;-86
2022/06/02 16:34:08;;;;;;;;;;;;;;;;;;6175607;23;19929;-86
2022/06/02 16:36:34;;;;;;;;;;;;;;;;;;6172390;23;19932;-86
2022/06/02 16:39:20;;;;;;;;;;;;;;;;;;6175312;23;20339;-86
2022/06/02 16:41:53;;;;;;;;;;;;;;;;;;6149486;23;19970;-86
2022/06/02 16:44:20;;;;;;;;;;;;;;;;;;6149766;23;19926;-86
2022/06/02 16:47:07;;;;;;;;;;;;;;;;;;6150421;23;19959;-86
2022/06/02 16:49:43;;;;;;;;;;;;;;;;;;6148203;23;19995;-86
2022/06/02 16:52:09;;;;;;;;;;;;;;;;;;6115033;23;19921;-86
2022/06/02 16:54:37;;;;;;;;;;;;;;;;;;6114052;23;19933;-85
2022/06/02 16:57:03;;;;;;;;;;;;;;;;;;6117145;23;20062;-86
2022/06/02 16:59:30;;;;;;;;;;;;;;;;;;6120676;23;19975;-86
2022/06/02 17:01:56;;;;;;;;;;;;;;;;;;6144442;23;19924;-86
2022/06/02 17:04:23;;;;;;;;;;;;;;;;;;6118499;23;20376;-86
2022/06/02 17:06:55;;;;;;;;;;;;;;;;;;6145200;23;19927;-86
2022/06/02 17:09:22;;;;;;;;;;;;;;;;;;6149104;23;19916;-86
2022/06/02 17:11:51;;;;;;;;;;;;;;;;;;6204826;23;19951;-86
2022/06/02 17:14:20;;;;;;;;;;;;;;;;;;6205782;23;19942;-86
2022/06/02 17:16:51;;;;;;;;;;;;;;;;;;6178661;23;20240;-86
2022/06/02 17:19:18;;;;;;;;;;;;;;;;;;6205836;23;19919;-86
2022/06/02 17:21:59;;;;;;;;;;;;;;;;;;6153834;23;20249;-85